Aeroporto :
LOGIN :

Iscrizione | Disclaimer

   EN    FR    IT 

 










Sommario :    VFR   VFR Marginale   IFR   IFR Intensivo   IFR Molto Intensivo
Visibilità : 
Base nubi : 
>= 8 km
>= 3000ft
5 / 8 km
1000 / 3000 ft
1500m / 5 km
500 / 1000 ft
800 / 1500m
200 / 500 ft
< 800m
< 200 ft
Simboli :   Temporali  Nebbia  Neve Forte  Precipitazioni Forti  Vento > 20 kt
SIGMETs :   Varie  Temporali  Ghiacco  Turbolenza  Onda orograficha  Ceneri Vulcaniche






- Altitudine del aeroporto : 495 ft
- Codice IATA : BUD


LHBP - Budapest Ferihegy

ULTIMO METAR :
  • 031730Z 33009KT CAVOK 12/M03 Q1014 NOSIG

METARs OBSOLETI :
  • 031700Z 33007KT CAVOK 12/M03 Q1014 NOSIG
  • 031630Z 33011KT CAVOK 14/M02 Q1013 NOSIG
  • 031600Z 32012KT 300V010 CAVOK 14/M02 Q1013 NOSIG
  • 031530Z 31014KT CAVOK 15/M03 Q1013 NOSIG
  • 031500Z 29012KT CAVOK 15/M04 Q1013 NOSIG

TAF TAF LHBP
Valido dal 03 a 18 ore il 04 a 18 ore UTC


031715Z 0318/0418 33006KT CAVOK
TEMPO 0318/0406 VRB03KT
BECMG 0406/0408 04009KT



MetMap, La meteo Aeronautica in un colpo d'occhio ! - Copyright ORBIFLY Dicembre 2007 - Disclaimer

ORBIFLY MET'MAP TEAM :

Programmazione e sviluppo : Alexandra Zaïnal
Concezione : Baudouin d'Aumeries
Aiuto per la programmazione : Marc-Olivier Méhu
Supporto tecnico e logistico : Manuel Goepfert
Aiuto per la traduzione : Arnaldo La Scala

Contatto : metmap@orbifly.com




FONTI E CREDITI :

   NOAA